Time;durP1;ratioP1;P1;durP2;ratioP2;P2;SDS_P1;SDS_P2;PMS_P1;PMS_P2;Temp;Humidity;BMP_temperature;BMP_pressure;BME280_temperature;BME280_humidity;BME280_pressure;Samples;Min_cycle;Max_cycle;Signal;HPM_P1;HPM_P2
2021/10/08 00:00:51;;;;;;;;;;;;;;;18.25;57.52;102757.56;4993037;28;96722;-89
2021/10/08 00:03:17;;;;;;;;;;;;;;;18.40;57.00;102753.47;4990775;28;96776;-90
2021/10/08 00:05:43;;;;;;;;;;;;;;;18.46;56.95;102749.69;4990974;28;97588;-90
2021/10/08 00:08:10;;;;;;;;;;;;;;;18.32;56.95;102744.84;4989688;28;97817;-89
2021/10/08 00:10:38;;;;;;;;;;;;;;;18.45;56.55;102748.81;4989849;28;96768;-89
2021/10/08 00:13:04;;;;;;;;;;;;;;;18.20;57.52;102748.84;4995835;28;96925;-87
2021/10/08 00:15:30;;;;;;;;;;;;;;;18.26;57.24;102745.06;5004249;28;98292;-88
2021/10/08 00:18:00;;;;;;;;;;;;;;;18.35;56.98;102747.44;5000607;28;97758;-88
2021/10/08 00:20:26;;;;;;;;;;;;;;;18.35;57.05;102749.22;5003472;28;95829;-87
2021/10/08 00:22:53;;;;;;;;;;;;;;;18.38;56.56;102746.47;5009000;28;95941;-85
2021/10/08 00:25:26;;;;;;;;;;;;;;;18.17;56.87;102745.44;4992380;28;99158;-80
2021/10/08 00:27:54;;;;;;;;;;;;;;;18.30;56.88;102752.09;4998731;28;98203;-82
2021/10/08 00:30:20;;;;;;;;;;;;;;;18.21;57.19;102747.06;5003956;28;96498;-84
2021/10/08 00:32:46;;;;;;;;;;;;;;;18.31;56.70;102749.31;4995619;28;96041;-82
2021/10/08 00:35:14;;;;;;;;;;;;;;;18.22;57.07;102749.69;5001513;28;97919;-83
2021/10/08 00:37:40;;;;;;;;;;;;;;;18.13;57.51;102751.78;5014498;28;97896;-86
2021/10/08 00:40:07;;;;;;;;;;;;;;;18.15;57.34;102737.44;5019571;28;96874;-81
2021/10/08 00:42:34;;;;;;;;;;;;;;;18.15;57.71;102747.28;5013225;28;95861;-86
2021/10/08 00:45:03;;;;;;;;;;;;;;;18.18;57.28;102749.84;5007663;28;97798;-80
2021/10/08 00:47:29;;;;;;;;;;;;;;;18.16;57.65;102747.22;5002017;28;97797;-86
2021/10/08 00:50:04;;;;;;;;;;;;;;;17.88;58.38;102743.75;5003431;28;95892;-82
2021/10/08 00:52:30;;;;;;;;;;;;;;;18.09;57.69;102742.13;4985472;28;96633;-85
2021/10/08 00:54:57;;;;;;;;;;;;;;;18.05;57.72;102749.38;4999797;28;97722;-87
2021/10/08 00:57:23;;;;;;;;;;;;;;;17.97;58.19;102746.13;4992733;28;101560;-88
2021/10/08 00:59:49;;;;;;;;;;;;;;;17.70;58.88;102747.94;4995352;28;96537;-87
2021/10/08 01:02:18;;;;;;;;;;;;;;;17.79;58.58;102746.72;4991002;28;96800;-86
2021/10/08 01:04:45;;;;;;;;;;;;;;;17.66;59.19;102751.63;4993678;28;99371;-88
2021/10/08 01:07:11;;;;;;;;;;;;;;;17.76;58.80;102747.72;5008224;28;97745;-88
2021/10/08 01:15:05;;;;;;;;;;;;;;;17.72;58.21;102746.06;5004218;28;99961;-88
2021/10/08 01:17:33;;;;;;;;;;;;;;;17.74;58.87;102748.69;4988114;28;98836;-89
2021/10/08 01:20:01;;;;;;;;;;;;;;;17.76;58.64;102739.72;4992403;28;96863;-86
2021/10/08 01:22:28;;;;;;;;;;;;;;;17.79;58.53;102741.38;5002888;28;96015;-86
2021/10/08 01:24:54;;;;;;;;;;;;;;;17.77;58.19;102741.47;5003760;28;97811;-89
2021/10/08 01:27:22;;;;;;;;;;;;;;;17.73;58.33;102742.47;5007423;28;97732;-89
2021/10/08 01:32:52;;;;;;;;;;;;;;;17.79;58.22;102742.25;5093538;27;96491;-88
2021/10/08 01:35:19;;;;;;;;;;;;;;;17.76;58.23;102747.72;5093875;27;96688;-89
2021/10/08 01:37:46;;;;;;;;;;;;;;;17.78;58.38;102753.03;5092542;27;96610;-90
2021/10/08 01:40:14;;;;;;;;;;;;;;;17.60;58.73;102756.25;5088385;27;98730;-89
2021/10/08 01:42:41;;;;;;;;;;;;;;;17.59;58.96;102752.72;5079080;27;96783;-90
2021/10/08 01:45:08;;;;;;;;;;;;;;;17.67;58.56;102755.16;5081529;27;96778;-87
2021/10/08 01:47:34;;;;;;;;;;;;;;;17.60;58.82;102757.13;5074385;27;98282;-90
2021/10/08 01:50:02;;;;;;;;;;;;;;;17.65;58.29;102749.91;5064822;27;96655;-89
2021/10/08 01:52:29;;;;;;;;;;;;;;;17.65;58.29;102755.25;5078636;27;98680;-89
2021/10/08 01:54:55;;;;;;;;;;;;;;;17.61;58.39;102748.22;5081216;27;97094;-88
2021/10/08 01:57:24;;;;;;;;;;;;;;;17.51;58.32;102754.78;5080299;27;98157;-90
2021/10/08 01:59:51;;;;;;;;;;;;;;;17.60;58.39;102743.78;5086760;27;99363;-90
2021/10/08 02:02:17;;;;;;;;;;;;;;;17.47;59.30;102750.44;5086079;27;96912;-90
2021/10/08 02:04:43;;;;;;;;;;;;;;;17.42;59.11;102757.75;5089713;27;96742;-89
2021/10/08 02:07:11;;;;;;;;;;;;;;;17.44;59.00;102762.13;5096882;27;98951;-87
2021/10/08 02:09:38;;;;;;;;;;;;;;;17.10;60.00;102751.63;5085733;27;98103;-89
2021/10/08 02:12:04;;;;;;;;;;;;;;;16.92;60.28;102757.53;5093437;27;96661;-89
2021/10/08 02:14:31;;;;;;;;;;;;;;;17.04;60.09;102750.94;5087748;27;96806;-90
2021/10/08 02:16:57;;;;;;;;;;;;;;;16.71;61.27;102753.72;5091084;27;97793;-87
2021/10/08 02:19:24;;;;;;;;;;;;;;;17.04;60.26;102753.63;5086206;27;97999;-85
2021/10/08 02:21:50;;;;;;;;;;;;;;;17.03;60.53;102759.88;5087059;27;96999;-91
2021/10/08 02:26:59;;;;;;;;;;;;;;;17.03;59.93;102758.09;5092081;27;100135;-86
2021/10/08 02:29:26;;;;;;;;;;;;;;;16.81;60.94;102766.78;5092907;27;98572;-91
2021/10/08 02:31:52;;;;;;;;;;;;;;;17.01;60.52;102767.06;5088966;27;97124;-78
2021/10/08 02:34:18;;;;;;;;;;;;;;;16.65;61.36;102769.03;5095426;27;95953;-86
2021/10/08 02:37:15;;;;;;;;;;;;;;;16.73;61.24;102767.91;5078447;27;99483;-75
2021/10/08 02:42:28;;;;;;;;;;;;;;;17.04;60.18;102762.50;5074852;27;96786;-82
2021/10/08 02:44:54;;;;;;;;;;;;;;;16.90;60.48;102770.06;5083873;27;95984;-83
2021/10/08 02:47:21;;;;;;;;;;;;;;;16.73;61.16;102778.56;5064608;27;98166;-82
2021/10/08 02:49:47;;;;;;;;;;;;;;;16.60;61.28;102777.19;5072962;27;97696;-89
2021/10/08 02:52:13;;;;;;;;;;;;;;;16.61;61.54;102775.34;5148596;22;99296;-89
2021/10/08 02:57:23;;;;;;;;;;;;;;;16.44;62.19;102782.94;5037248;27;98773;-90
2021/10/08 02:59:49;;;;;;;;;;;;;;;16.72;61.22;102787.50;5042742;27;98083;-91
2021/10/08 03:02:16;;;;;;;;;;;;;;;16.41;61.84;102788.38;5036094;28;96167;-91
2021/10/08 03:04:42;;;;;;;;;;;;;;;16.41;62.06;102791.06;5034916;28;96730;-90
2021/10/08 03:07:08;;;;;;;;;;;;;;;16.35;62.21;102786.72;5033922;28;98349;-92
2021/10/08 03:09:34;;;;;;;;;;;;;;;16.54;61.56;102792.47;5032847;28;98017;-91
2021/10/08 03:12:01;;;;;;;;;;;;;;;16.51;61.48;102787.19;5040040;28;96466;-91
2021/10/08 03:14:28;;;;;;;;;;;;;;;16.52;61.64;102794.28;5047953;28;95943;-90
2021/10/08 03:16:56;;;;;;;;;;;;;;;16.68;61.13;102785.81;5050835;28;97797;-91
2021/10/08 03:19:22;;;;;;;;;;;;;;;16.75;60.57;102791.84;5035779;28;98042;-89
2021/10/08 03:21:49;;;;;;;;;;;;;;;16.76;61.14;102793.63;5041557;27;96153;-90
2021/10/08 03:24:15;;;;;;;;;;;;;;;16.53;61.57;102796.91;5034856;27;96038;-87
2021/10/08 03:26:42;;;;;;;;;;;;;;;16.85;60.58;102793.34;5060273;27;97944;-82
2021/10/08 03:29:08;;;;;;;;;;;;;;;16.18;62.42;102794.31;5059410;27;97700;-90
2021/10/08 03:31:36;;;;;;;;;;;;;;;16.27;62.54;102796.75;5043186;27;95921;-91
2021/10/08 03:34:04;;;;;;;;;;;;;;;16.65;61.29;102801.06;5045738;27;96026;-89
2021/10/08 03:36:41;;;;;;;;;;;;;;;16.32;62.85;102800.16;5055296;27;99030;-84
2021/10/08 03:39:08;;;;;;;;;;;;;;;16.33;62.29;102805.47;5051493;27;97701;-91
2021/10/08 03:41:35;;;;;;;;;;;;;;;15.78;64.05;102799.78;5051566;27;96552;-91
2021/10/08 03:44:06;;;;;;;;;;;;;;;15.77;64.69;102798.91;5041104;27;96524;-86
2021/10/08 03:46:38;;;;;;;;;;;;;;;16.17;63.51;102800.56;5040852;27;96722;-81
2021/10/08 03:49:15;;;;;;;;;;;;;;;15.93;63.68;102804.75;5042685;27;98103;-85
2021/10/08 03:51:42;;;;;;;;;;;;;;;15.92;63.49;102808.31;5042123;27;96674;-91
2021/10/08 03:54:09;;;;;;;;;;;;;;;15.97;63.46;102809.09;5029855;27;95836;-84
2021/10/08 03:56:35;;;;;;;;;;;;;;;15.74;64.49;102816.78;5042076;27;97842;-89
2021/10/08 03:59:02;;;;;;;;;;;;;;;15.80;64.50;102820.19;5045427;27;97765;-87
2021/10/08 04:01:29;;;;;;;;;;;;;;;15.66;64.49;102827.63;5043024;27;95886;-85
2021/10/08 04:03:57;;;;;;;;;;;;;;;16.04;63.28;102825.81;5043308;27;96096;-87
2021/10/08 04:06:36;;;;;;;;;;;;;;;15.72;63.92;102824.81;5047491;27;97466;-84
2021/10/08 04:09:04;;;;;;;;;;;;;;;16.06;63.06;102826.66;5022655;28;97601;-83
2021/10/08 04:11:33;;;;;;;;;;;;;;;16.41;61.99;102823.91;5037908;27;95865;-82
2021/10/08 04:13:59;;;;;;;;;;;;;;;16.19;62.73;102823.63;5043204;27;96094;-83
2021/10/08 04:16:26;;;;;;;;;;;;;;;15.89;63.84;102829.72;5051963;27;97823;-81
2021/10/08 04:18:53;;;;;;;;;;;;;;;15.80;63.97;102832.63;5043341;27;99685;-86
2021/10/08 04:21:21;;;;;;;;;;;;;;;15.91;63.41;102836.78;5043075;27;96023;-85
2021/10/08 04:23:51;;;;;;;;;;;;;;;16.07;62.83;102831.06;5042323;27;96271;-86
2021/10/08 04:26:18;;;;;;;;;;;;;;;16.02;62.77;102831.16;5042044;27;99782;-79
2021/10/08 04:28:47;;;;;;;;;;;;;;;16.37;62.17;102832.94;5049435;27;97792;-82
2021/10/08 04:31:13;;;;;;;;;;;;;;;15.94;62.93;102828.72;5057056;27;97786;-81
2021/10/08 04:33:39;;;;;;;;;;;;;;;15.37;64.89;102836.25;5032747;28;97847;-81
2021/10/08 04:36:06;;;;;;;;;;;;;;;15.41;65.15;102829.09;5037665;28;99646;-80
2021/10/08 04:38:33;;;;;;;;;;;;;;;15.57;64.55;102826.94;5038280;28;99268;-81
2021/10/08 04:41:00;;;;;;;;;;;;;;;15.74;64.47;102831.00;5051273;28;95849;-82
2021/10/08 04:43:27;;;;;;;;;;;;;;;15.51;64.52;102827.94;5040036;27;96081;-75
2021/10/08 04:45:53;;;;;;;;;;;;;;;15.46;64.61;102833.38;5045282;27;100100;-84
2021/10/08 04:48:19;;;;;;;;;;;;;;;15.39;64.61;102833.56;5035445;27;98051;-87
2021/10/08 04:53:30;;;;;;;;;;;;;;;15.33;64.83;102833.69;5026651;28;96974;-89
2021/10/08 04:55:56;;;;;;;;;;;;;;;15.44;64.30;102843.19;5030830;28;98315;-90
2021/10/08 04:58:24;;;;;;;;;;;;;;;15.91;63.02;102835.91;5030296;28;97901;-91
2021/10/08 05:01:02;;;;;;;;;;;;;;;15.97;62.49;102837.53;5029040;28;96597;-91
2021/10/08 05:03:30;;;;;;;;;;;;;;;16.27;61.62;102834.97;5018610;28;96883;-85
2021/10/08 05:05:57;;;;;;;;;;;;;;;15.91;62.67;102834.13;5040055;28;97184;-90
2021/10/08 05:08:26;;;;;;;;;;;;;;;16.01;62.32;102839.22;5021882;28;98291;-89
2021/10/08 05:10:52;;;;;;;;;;;;;;;16.39;61.37;102832.91;5011835;28;96559;-89
2021/10/08 05:13:19;;;;;;;;;;;;;;;16.03;61.86;102840.91;5028689;28;96759;-88
2021/10/08 05:15:46;;;;;;;;;;;;;;;16.17;61.79;102841.44;5028784;28;98342;-90
2021/10/08 05:18:13;;;;;;;;;;;;;;;15.72;62.78;102839.94;5039559;27;99426;-87
2021/10/08 05:20:40;;;;;;;;;;;;;;;15.48;64.17;102839.56;5026355;28;96683;-88
2021/10/08 05:23:08;;;;;;;;;;;;;;;15.32;64.59;102843.47;5024783;28;96570;-88
2021/10/08 05:25:34;;;;;;;;;;;;;;;15.67;63.36;102842.72;5025157;28;97730;-88
2021/10/08 05:28:01;;;;;;;;;;;;;;;15.87;62.91;102842.22;5025403;28;99093;-88
2021/10/08 05:30:27;;;;;;;;;;;;;;;15.51;63.79;102843.94;5025649;28;96875;-88
2021/10/08 05:33:03;;;;;;;;;;;;;;;15.66;63.35;102848.06;5016327;28;96759;-87
2021/10/08 05:35:29;;;;;;;;;;;;;;;15.75;63.01;102848.72;5008988;28;98006;-87
2021/10/08 05:38:02;;;;;;;;;;;;;;;15.72;62.90;102850.59;5024997;28;97863;-88
2021/10/08 05:40:29;;;;;;;;;;;;;;;15.94;62.68;102851.84;5019551;28;96860;-88
2021/10/08 05:42:55;;;;;;;;;;;;;;;16.14;61.44;102854.88;5031362;28;97700;-87
2021/10/08 05:45:21;;;;;;;;;;;;;;;15.86;62.36;102859.13;5034211;28;97877;-86
2021/10/08 05:47:48;;;;;;;;;;;;;;;15.41;63.62;102861.94;5028371;28;98827;-84
2021/10/08 05:50:16;;;;;;;;;;;;;;;15.42;64.19;102865.47;5015489;28;97620;-84
2021/10/08 05:52:42;;;;;;;;;;;;;;;15.28;64.64;102867.56;5024157;28;96909;-83
2021/10/08 05:55:10;;;;;;;;;;;;;;;16.11;61.82;102868.28;5025200;28;99026;-86
2021/10/08 05:57:37;;;;;;;;;;;;;;;15.81;62.93;102867.25;5028629;28;96697;-87
2021/10/08 06:00:03;;;;;;;;;;;;;;;15.70;62.86;102874.59;5028582;28;96776;-88
2021/10/08 06:02:30;;;;;;;;;;;;;;;15.86;62.64;102878.69;5025985;28;96803;-87
2021/10/08 06:07:39;;;;;;;;;;;;;;;15.63;63.53;102874.78;5022899;28;98173;-88
2021/10/08 06:10:06;;;;;;;;;;;;;;;16.12;61.90;102879.81;5033385;28;97007;-84
2021/10/08 06:12:34;;;;;;;;;;;;;;;15.93;62.03;102879.41;5037918;28;97245;-85
2021/10/08 06:15:01;;;;;;;;;;;;;;;15.62;62.49;102883.72;5038586;27;96377;-84
2021/10/08 06:17:27;;;;;;;;;;;;;;;15.52;63.21;102880.31;5038420;27;99689;-82
2021/10/08 06:19:54;;;;;;;;;;;;;;;16.23;61.39;102877.75;5032003;27;95966;-82
2021/10/08 06:22:23;;;;;;;;;;;;;;;16.38;60.10;102887.16;5023989;28;96925;-82
2021/10/08 06:24:50;;;;;;;;;;;;;;;16.31;60.58;102886.44;5036178;27;97622;-81
2021/10/08 06:27:17;;;;;;;;;;;;;;;16.00;61.01;102894.34;5041911;27;98118;-80
2021/10/08 06:29:44;;;;;;;;;;;;;;;16.25;59.91;102897.28;5042885;27;95880;-79
2021/10/08 06:32:12;;;;;;;;;;;;;;;16.08;60.62;102896.84;5043720;27;96017;-80
2021/10/08 06:34:42;;;;;;;;;;;;;;;16.12;60.15;102901.16;5043375;27;97833;-79
2021/10/08 06:37:11;;;;;;;;;;;;;;;15.78;61.11;102912.63;5025586;27;99533;-83
2021/10/08 06:39:38;;;;;;;;;;;;;;;15.80;60.84;102904.59;5022357;28;96026;-81
2021/10/08 06:42:07;;;;;;;;;;;;;;;15.37;61.80;102905.50;5023367;28;95929;-80
2021/10/08 06:44:34;;;;;;;;;;;;;;;15.57;61.50;102901.56;5020461;28;98710;-84
2021/10/08 06:47:01;;;;;;;;;;;;;;;16.18;59.28;102907.22;5022572;28;99803;-84
2021/10/08 06:49:30;;;;;;;;;;;;;;;16.10;59.64;102908.31;5023268;28;96338;-79
2021/10/08 06:51:56;;;;;;;;;;;;;;;16.26;59.07;102909.72;5022351;28;96585;-84
2021/10/08 06:54:24;;;;;;;;;;;;;;;15.76;60.27;102922.44;5013590;28;98665;-86
2021/10/08 06:56:51;;;;;;;;;;;;;;;15.62;60.71;102929.84;5020395;28;100448;-85
2021/10/08 06:59:19;;;;;;;;;;;;;;;16.15;59.29;102922.41;5028884;28;96956;-85
2021/10/08 07:01:46;;;;;;;;;;;;;;;16.65;57.17;102929.19;5030259;28;96762;-84
2021/10/08 07:04:12;;;;;;;;;;;;;;;16.85;56.72;102932.19;5033464;28;99158;-84
2021/10/08 07:06:39;;;;;;;;;;;;;;;17.07;55.77;102933.34;5029167;28;98292;-85
2021/10/08 07:14:30;;;;;;;;;;;;;;;16.85;56.05;102944.69;5018190;28;96816;-84
2021/10/08 07:17:00;;;;;;;;;;;;;;;16.72;55.87;102937.00;5030329;28;97730;-85
2021/10/08 07:19:30;;;;;;;;;;;;;;;16.25;57.44;102939.97;5025804;28;96943;-85
2021/10/08 07:21:57;;;;;;;;;;;;;;;16.69;56.55;102946.88;5024921;28;96816;-83
2021/10/08 07:24:23;;;;;;;;;;;;;;;16.65;56.49;102942.53;5031050;28;98922;-84
2021/10/08 07:26:50;;;;;;;;;;;;;;;17.72;53.90;102946.59;5025639;28;97003;-85
2021/10/08 07:29:17;;;;;;;;;;;;;;;17.79;53.45;102947.28;5024073;28;96659;-86
2021/10/08 07:31:45;;;;;;;;;;;;;;;17.83;53.61;102946.28;5022562;28;97292;-85
2021/10/08 07:34:13;;;;;;;;;;;;;;;18.51;51.73;102945.84;5023132;28;99305;-84
2021/10/08 07:36:39;;;;;;;;;;;;;;;18.24;52.15;102942.31;5020412;28;99387;-85
2021/10/08 07:39:05;;;;;;;;;;;;;;;18.20;52.37;102943.31;5023904;28;97084;-84
2021/10/08 07:41:32;;;;;;;;;;;;;;;18.41;51.18;102945.28;5025096;28;97858;-84
2021/10/08 07:43:58;;;;;;;;;;;;;;;17.80;53.53;102941.91;5016227;28;98902;-84
2021/10/08 07:46:33;;;;;;;;;;;;;;;18.00;53.09;102943.06;4990503;28;98866;-83
2021/10/08 07:49:00;;;;;;;;;;;;;;;17.87;52.44;102943.47;5003506;28;96705;-85
2021/10/08 07:51:27;;;;;;;;;;;;;;;18.15;51.89;102939.91;5004047;28;96783;-83
2021/10/08 07:53:54;;;;;;;;;;;;;;;18.45;51.33;102936.22;5002573;28;99215;-85
2021/10/08 07:56:21;;;;;;;;;;;;;;;18.47;51.21;102942.41;5007886;28;98772;-84
2021/10/08 07:58:47;;;;;;;;;;;;;;;18.48;50.92;102944.16;5040735;28;96797;-83
2021/10/08 08:01:14;;;;;;;;;;;;;;;18.86;49.97;102952.69;5043113;22;96831;-84
2021/10/08 08:03:42;;;;;;;;;;;;;;;19.13;48.74;102951.69;5015354;28;100257;-85
2021/10/08 08:06:21;;;;;;;;;;;;;;;19.09;48.77;102960.78;5028675;28;101257;-85
2021/10/08 08:08:50;;;;;;;;;;;;;;;18.29;50.82;102961.75;5035703;28;96488;-84
2021/10/08 08:11:19;;;;;;;;;;;;;;;18.14;51.32;102959.56;5041179;28;96078;-85
2021/10/08 08:13:45;;;;;;;;;;;;;;;18.06;51.39;102965.16;5037499;28;98991;-85
2021/10/08 08:16:12;;;;;;;;;;;;;;;18.21;51.20;102962.00;5035418;28;98811;-86
2021/10/08 08:18:38;;;;;;;;;;;;;;;18.38;50.62;102965.94;5030010;28;96897;-84
2021/10/08 08:21:05;;;;;;;;;;;;;;;17.74;51.88;102971.50;5025201;28;96715;-85
2021/10/08 08:26:08;;;;;;;;;;;;;;;17.68;52.44;102969.03;5068169;22;100606;-86
2021/10/08 08:28:34;;;;;;;;;;;;;;;17.97;51.87;102965.47;5064775;27;96948;-86
2021/10/08 08:31:01;;;;;;;;;;;;;;;18.59;50.18;102962.53;5069388;27;97082;-85
2021/10/08 08:33:34;;;;;;;;;;;;;;;18.86;49.85;102956.25;5068676;27;98162;-87
2021/10/08 08:36:00;;;;;;;;;;;;;;;19.34;47.98;102960.75;5070490;27;99768;-86
2021/10/08 08:38:28;;;;;;;;;;;;;;;18.67;49.70;102960.50;5053781;27;97051;-85
2021/10/08 08:40:55;;;;;;;;;;;;;;;18.71;48.60;102960.31;5065732;27;96651;-84
2021/10/08 08:43:31;;;;;;;;;;;;;;;19.38;47.32;102957.91;5068778;27;98095;-84
2021/10/08 08:45:58;;;;;;;;;;;;;;;19.51;46.77;102963.69;5061864;27;99322;-84
2021/10/08 08:48:25;;;;;;;;;;;;;;;19.97;45.37;102957.41;5065752;27;97154;-85
2021/10/08 08:50:55;;;;;;;;;;;;;;;19.64;46.36;102962.31;5059383;27;96883;-85
2021/10/08 08:53:22;;;;;;;;;;;;;;;19.67;45.66;102956.84;5065313;27;99775;-84
2021/10/08 08:55:49;;;;;;;;;;;;;;;19.43;45.90;102960.41;5058525;27;98912;-85
2021/10/08 08:58:16;;;;;;;;;;;;;;;19.83;44.90;102957.09;5065556;27;96711;-86
2021/10/08 09:00:46;;;;;;;;;;;;;;;20.14;44.41;102954.94;5064086;27;96903;-84
2021/10/08 09:03:15;;;;;;;;;;;;;;;19.60;45.06;102957.13;5067466;27;97855;-85
2021/10/08 09:05:46;;;;;;;;;;;;;;;19.73;45.14;102956.59;5060134;27;100779;-86
2021/10/08 09:08:13;;;;;;;;;;;;;;;19.76;44.35;102958.25;5068352;27;96696;-85
2021/10/08 09:10:51;;;;;;;;;;;;;;;20.54;42.94;102950.66;5066901;27;96728;-85
2021/10/08 09:13:17;;;;;;;;;;;;;;;20.04;44.25;102945.50;5066354;27;97545;-86
2021/10/08 09:15:47;;;;;;;;;;;;;;;20.40;43.43;102944.97;5066926;27;98684;-85
2021/10/08 09:18:14;;;;;;;;;;;;;;;20.62;42.35;102940.41;5047097;27;96635;-86
2021/10/08 09:21:01;;;;;;;;;;;;;;;21.39;40.80;102947.75;5045588;27;96668;-85
2021/10/08 09:23:31;;;;;;;;;;;;;;;21.33;40.28;102939.09;5056147;27;97846;-84
2021/10/08 09:25:59;;;;;;;;;;;;;;;21.00;40.18;102938.75;5065989;27;100270;-86
2021/10/08 09:28:25;;;;;;;;;;;;;;;21.36;39.26;102947.00;5058632;27;96747;-85
2021/10/08 09:30:56;;;;;;;;;;;;;;;21.65;38.42;102941.13;5051925;27;96807;-85
2021/10/08 09:33:29;;;;;;;;;;;;;;;21.42;37.73;102946.72;5071423;27;98933;-84
2021/10/08 09:35:58;;;;;;;;;;;;;;;20.52;38.62;102939.97;5063127;27;98961;-86
2021/10/08 09:38:25;;;;;;;;;;;;;;;20.29;38.39;102938.19;5075663;27;96663;-85
2021/10/08 09:40:57;;;;;;;;;;;;;;;20.81;37.25;102945.88;5076703;27;96317;-86
2021/10/08 09:43:27;;;;;;;;;;;;;;;21.02;37.10;102939.53;5077936;27;98525;-85
2021/10/08 09:45:56;;;;;;;;;;;;;;;20.81;37.05;102936.00;5066776;27;96284;-85
2021/10/08 09:48:25;;;;;;;;;;;;;;;20.74;36.71;102934.53;5078731;27;96608;-84
2021/10/08 09:51:03;;;;;;;;;;;;;;;20.89;36.35;102933.84;5071528;27;96480;-86
2021/10/08 09:53:30;;;;;;;;;;;;;;;21.13;35.50;102939.09;5065418;27;98313;-86
2021/10/08 09:55:57;;;;;;;;;;;;;;;21.24;35.05;102931.44;5046903;27;97981;-84
2021/10/08 09:58:23;;;;;;;;;;;;;;;21.20;35.48;102935.22;5060668;27;96780;-84
2021/10/08 10:00:57;;;;;;;;;;;;;;;21.29;34.68;102932.09;5065604;27;96921;-84
2021/10/08 10:03:25;;;;;;;;;;;;;;;20.04;36.90;102924.03;5053190;27;99684;-84
2021/10/08 10:05:51;;;;;;;;;;;;;;;20.62;35.86;102924.31;5068268;27;98893;-85
2021/10/08 10:08:17;;;;;;;;;;;;;;;20.95;35.13;102919.25;5078805;27;96598;-85
2021/10/08 10:10:45;;;;;;;;;;;;;;;19.96;35.50;102918.09;5081442;27;96549;-85
2021/10/08 10:13:13;;;;;;;;;;;;;;;20.72;34.83;102914.91;5079020;27;98210;-85
2021/10/08 10:15:40;;;;;;;;;;;;;;;21.09;34.01;102917.69;5065897;27;96850;-85
2021/10/08 10:18:09;;;;;;;;;;;;;;;20.69;34.74;102915.03;5058013;27;96715;-86
2021/10/08 10:20:38;;;;;;;;;;;;;;;20.52;34.72;102917.59;5047731;27;96897;-88
2021/10/08 10:23:06;;;;;;;;;;;;;;;20.71;34.55;102910.47;5063258;27;97605;-85
2021/10/08 10:25:33;;;;;;;;;;;;;;;20.66;33.84;102904.44;5062295;27;97965;-84
2021/10/08 10:27:59;;;;;;;;;;;;;;;20.88;34.31;102907.91;5036217;27;96713;-86
2021/10/08 10:30:26;;;;;;;;;;;;;;;20.28;34.77;102901.53;5067609;27;96844;-85
2021/10/08 10:32:53;;;;;;;;;;;;;;;21.26;33.45;102906.22;5077142;27;98135;-86
2021/10/08 10:35:52;;;;;;;;;;;;;;;21.30;33.67;102902.44;5075798;27;96786;-85
2021/10/08 10:38:29;;;;;;;;;;;;;;;20.99;33.47;102902.94;4982298;28;96818;-86
2021/10/08 10:41:14;;;;;;;;;;;;;;;20.36;33.90;102903.94;4971946;28;96696;-86
2021/10/08 10:43:43;;;;;;;;;;;;;;;20.13;34.85;102910.25;5021638;27;97067;-84
2021/10/08 10:46:27;;;;;;;;;;;;;;;20.52;34.04;102904.16;5062861;27;96849;-82
2021/10/08 10:49:23;;;;;;;;;;;;;;;20.72;33.93;102909.56;5061538;27;96938;-83
2021/10/08 10:52:04;;;;;;;;;;;;;;;21.07;33.61;102907.94;5059835;27;96768;-84
2021/10/08 10:54:49;;;;;;;;;;;;;;;20.41;34.89;102906.44;5066694;27;97871;-82
2021/10/08 10:57:37;;;;;;;;;;;;;;;20.73;34.11;102900.56;5057866;27;98916;-86
2021/10/08 11:00:21;;;;;;;;;;;;;;;20.54;34.76;102902.31;5062041;27;96971;-87
2021/10/08 11:02:48;;;;;;;;;;;;;;;20.82;34.40;102897.44;5042166;27;98374;-86
2021/10/08 11:05:20;;;;;;;;;;;;;;;20.86;34.79;102907.13;5064955;27;99342;-85
2021/10/08 11:08:01;;;;;;;;;;;;;;;20.92;34.74;102906.84;5061204;27;98031;-85
2021/10/08 11:10:28;;;;;;;;;;;;;;;20.19;36.03;102898.38;5061901;27;96772;-86
2021/10/08 11:13:18;;;;;;;;;;;;;;;20.95;34.88;102905.81;5065579;27;96783;-85
2021/10/08 11:15:52;;;;;;;;;;;;;;;21.14;35.02;102905.84;5059550;27;99077;-84
2021/10/08 11:18:34;;;;;;;;;;;;;;;21.15;34.65;102899.53;5061583;27;98868;-85
2021/10/08 11:21:01;;;;;;;;;;;;;;;20.50;35.38;102892.59;5064186;27;96709;-84
2021/10/08 11:23:29;;;;;;;;;;;;;;;21.11;34.35;102897.94;5053063;27;97104;-84
2021/10/08 11:25:56;;;;;;;;;;;;;;;21.35;33.71;102896.84;5070091;27;98434;-85
2021/10/08 11:28:28;;;;;;;;;;;;;;;20.75;35.02;102887.91;5072216;27;98039;-84
2021/10/08 11:30:54;;;;;;;;;;;;;;;20.88;35.81;102891.78;5056148;27;96565;-86
2021/10/08 11:33:32;;;;;;;;;;;;;;;21.32;34.72;102894.31;5075442;27;96709;-86
2021/10/08 11:35:58;;;;;;;;;;;;;;;21.02;34.64;102886.66;5074701;27;97924;-85
2021/10/08 11:38:25;;;;;;;;;;;;;;;21.21;34.97;102893.91;5073703;27;98050;-84
2021/10/08 11:40:52;;;;;;;;;;;;;;;20.80;35.70;102893.97;5073328;27;96461;-86
2021/10/08 11:43:24;;;;;;;;;;;;;;;20.56;36.59;102887.84;5070301;27;97501;-85
2021/10/08 11:45:54;;;;;;;;;;;;;;;20.55;36.26;102890.59;5068937;27;98436;-84
2021/10/08 11:48:23;;;;;;;;;;;;;;;20.31;36.54;102889.81;5062176;27;99016;-83
2021/10/08 11:51:01;;;;;;;;;;;;;;;20.90;35.79;102883.66;5064666;27;96905;-84
2021/10/08 11:53:40;;;;;;;;;;;;;;;21.27;35.21;102881.06;5058192;27;97281;-85
2021/10/08 11:56:22;;;;;;;;;;;;;;;20.43;36.13;102880.38;5064997;27;99496;-83
2021/10/08 11:58:49;;;;;;;;;;;;;;;20.39;36.66;102879.66;5052680;27;98650;-82
2021/10/08 12:01:22;;;;;;;;;;;;;;;20.54;36.10;102878.13;5074391;27;96596;-83
2021/10/08 12:03:48;;;;;;;;;;;;;;;20.93;35.65;102881.72;5074130;27;96622;-82
2021/10/08 12:06:20;;;;;;;;;;;;;;;21.34;35.05;102884.34;5073906;27;97885;-81
2021/10/08 12:08:46;;;;;;;;;;;;;;;21.54;34.67;102873.50;5076101;27;97727;-81
2021/10/08 12:11:15;;;;;;;;;;;;;;;21.03;35.00;102866.91;5080008;27;96671;-86
2021/10/08 12:13:43;;;;;;;;;;;;;;;20.58;35.38;102869.84;5082008;27;96552;-83
2021/10/08 12:16:10;;;;;;;;;;;;;;;20.90;35.01;102871.09;5073895;27;97777;-83
2021/10/08 12:18:45;;;;;;;;;;;;;;;21.38;33.76;102872.50;5080979;27;97414;-82
2021/10/08 12:21:12;;;;;;;;;;;;;;;21.56;34.09;102868.06;5079782;27;95891;-83
2021/10/08 12:23:39;;;;;;;;;;;;;;;21.38;33.53;102865.31;5082065;27;96005;-82
2021/10/08 12:26:05;;;;;;;;;;;;;;;21.79;33.15;102865.13;5077528;27;97810;-83
2021/10/08 12:28:32;;;;;;;;;;;;;;;21.97;33.52;102860.69;5079853;27;98182;-84
2021/10/08 12:30:59;;;;;;;;;;;;;;;21.21;34.17;102865.22;5081063;27;96428;-83
2021/10/08 12:33:27;;;;;;;;;;;;;;;20.83;34.71;102850.81;5082055;27;95974;-82
2021/10/08 12:36:09;;;;;;;;;;;;;;;20.49;34.76;102861.31;5072769;27;98074;-85
2021/10/08 12:38:50;;;;;;;;;;;;;;;20.64;35.23;102856.16;5061448;27;98326;-85
2021/10/08 12:41:22;;;;;;;;;;;;;;;20.99;34.40;102862.63;5069671;27;96608;-85
2021/10/08 12:43:49;;;;;;;;;;;;;;;21.43;33.52;102855.19;5056264;27;98592;-87
2021/10/08 12:46:20;;;;;;;;;;;;;;;20.58;34.06;102863.63;5068379;27;98181;-85
2021/10/08 12:48:56;;;;;;;;;;;;;;;21.11;33.30;102858.50;5068984;27;100295;-86
2021/10/08 12:51:23;;;;;;;;;;;;;;;21.99;33.79;102848.88;5073338;27;96952;-87
2021/10/08 12:53:49;;;;;;;;;;;;;;;21.96;32.16;102846.34;5078460;27;96747;-88
2021/10/08 12:56:23;;;;;;;;;;;;;;;21.25;33.43;102860.59;5070876;27;97841;-86
2021/10/08 12:58:53;;;;;;;;;;;;;;;21.35;32.85;102853.81;5074816;27;99137;-87
2021/10/08 13:01:20;;;;;;;;;;;;;;;22.11;31.72;102847.41;5068361;27;96794;-87
2021/10/08 13:03:48;;;;;;;;;;;;;;;22.62;31.70;102843.81;5043032;27;97135;-86
2021/10/08 13:06:27;;;;;;;;;;;;;;;23.12;30.38;102841.09;5068207;27;97858;-85
2021/10/08 13:09:03;;;;;;;;;;;;;;;22.50;31.13;102847.16;5066532;27;97808;-84
2021/10/08 13:11:36;;;;;;;;;;;;;;;22.54;30.97;102841.53;5049291;27;96824;-84
2021/10/08 13:14:03;;;;;;;;;;;;;;;22.51;30.84;102843.53;5063670;27;96644;-84